sensor_id;sensor_type;location;lat;lon;timestamp;pressure;altitude;pressure_sealevel;temperature;humidity
78313;BME280;67568;47.438;21.408;2023-12-07T07:13:44;100589.91;;;0.92;100.00
78313;BME280;67568;47.438;21.408;2023-12-07T07:16:11;100580.78;;;0.98;100.00
78313;BME280;67568;47.438;21.408;2023-12-07T07:18:38;100587.16;;;0.92;100.00
78313;BME280;67568;47.438;21.408;2023-12-07T07:21:06;100588.34;;;0.96;100.00
78313;BME280;67568;47.438;21.408;2023-12-07T07:23:34;100590.38;;;0.88;100.00
78313;BME280;67568;47.438;21.408;2023-12-07T07:26:01;100591.16;;;0.77;100.00
78313;BME280;67568;47.438;21.408;2023-12-07T07:28:28;100592.69;;;0.85;100.00
78313;BME280;67568;47.438;21.408;2023-12-07T07:30:55;100593.19;;;0.94;100.00
78313;BME280;67568;47.438;21.408;2023-12-07T07:33:22;100592.53;;;0.68;100.00
78313;BME280;67568;47.438;21.408;2023-12-07T07:35:49;100590.69;;;0.80;100.00
78313;BME280;67568;47.438;21.408;2023-12-07T07:38:21;100592.69;;;0.85;100.00
78313;BME280;67568;47.438;21.408;2023-12-07T07:40:47;100598.19;;;0.97;100.00
78313;BME280;67568;47.438;21.408;2023-12-07T07:43:14;100594.94;;;0.76;100.00
78313;BME280;67568;47.438;21.408;2023-12-07T07:45:51;100595.94;;;0.94;100.00
78313;BME280;67568;47.438;21.408;2023-12-07T07:48:17;100601.22;;;0.77;100.00
78313;BME280;67568;47.438;21.408;2023-12-07T07:50:44;100594.63;;;0.96;100.00
78313;BME280;67568;47.438;21.408;2023-12-07T07:53:12;100602.09;;;0.89;100.00
78313;BME280;67568;47.438;21.408;2023-12-07T07:55:42;100605.47;;;1.03;100.00
78313;BME280;67568;47.438;21.408;2023-12-07T07:58:09;100599.75;;;1.04;100.00
78313;BME280;67568;47.438;21.408;2023-12-07T08:00:35;100608.25;;;0.84;100.00
78313;BME280;67568;47.438;21.408;2023-12-07T08:03:02;100605.66;;;0.89;100.00
78313;BME280;67568;47.438;21.408;2023-12-07T08:05:29;100607.22;;;0.97;100.00
78313;BME280;67568;47.438;21.408;2023-12-07T08:07:56;100607.91;;;0.93;100.00
78313;BME280;67568;47.438;21.408;2023-12-07T08:10:24;100609.63;;;1.05;100.00
78313;BME280;67568;47.438;21.408;2023-12-07T08:12:51;100608.84;;;0.86;100.00
78313;BME280;67568;47.438;21.408;2023-12-07T08:15:18;100620.69;;;1.22;100.00
78313;BME280;67568;47.438;21.408;2023-12-07T08:17:48;100620.16;;;1.02;100.00
78313;BME280;67568;47.438;21.408;2023-12-07T08:20:14;100610.50;;;1.18;100.00
78313;BME280;67568;47.438;21.408;2023-12-07T08:22:41;100617.72;;;1.24;100.00
78313;BME280;67568;47.438;21.408;2023-12-07T08:25:10;100620.00;;;1.27;100.00
78313;BME280;67568;47.438;21.408;2023-12-07T08:27:38;100620.59;;;1.29;100.00
78313;BME280;67568;47.438;21.408;2023-12-07T08:30:06;100618.91;;;1.16;100.00
78313;BME280;67568;47.438;21.408;2023-12-07T08:32:33;100615.38;;;1.27;100.00
78313;BME280;67568;47.438;21.408;2023-12-07T08:34:59;100618.34;;;1.38;100.00
78313;BME280;67568;47.438;21.408;2023-12-07T08:37:26;100625.22;;;1.28;100.00
78313;BME280;67568;47.438;21.408;2023-12-07T08:39:54;100623.19;;;1.24;100.00
78313;BME280;67568;47.438;21.408;2023-12-07T08:42:21;100626.41;;;1.32;100.00
78313;BME280;67568;47.438;21.408;2023-12-07T08:44:48;100633.38;;;1.17;100.00
78313;BME280;67568;47.438;21.408;2023-12-07T08:47:14;100627.97;;;1.28;100.00
78313;BME280;67568;47.438;21.408;2023-12-07T08:49:41;100635.56;;;1.38;100.00
78313;BME280;67568;47.438;21.408;2023-12-07T08:52:12;100628.44;;;1.37;100.00
78313;BME280;67568;47.438;21.408;2023-12-07T08:54:57;100624.03;;;1.24;100.00
78313;BME280;67568;47.438;21.408;2023-12-07T08:57:24;100629.94;;;1.21;100.00
78313;BME280;67568;47.438;21.408;2023-12-07T08:59:51;100628.69;;;1.35;100.00
78313;BME280;67568;47.438;21.408;2023-12-07T09:02:20;100628.44;;;1.37;100.00
78313;BME280;67568;47.438;21.408;2023-12-07T09:05:07;100633.53;;;1.33;100.00
78313;BME280;67568;47.438;21.408;2023-12-07T09:07:35;100637.59;;;1.43;100.00
78313;BME280;67568;47.438;21.408;2023-12-07T09:10:01;100639.38;;;1.49;100.00
78313;BME280;67568;47.438;21.408;2023-12-07T09:12:30;100637.00;;;1.41;100.00
78313;BME280;67568;47.438;21.408;2023-12-07T09:15:04;100633.19;;;1.42;100.00
78313;BME280;67568;47.438;21.408;2023-12-07T09:17:31;100641.03;;;1.50;100.00
78313;BME280;67568;47.438;21.408;2023-12-07T09:19:57;100639.25;;;1.44;100.00
78313;BME280;67568;47.438;21.408;2023-12-07T09:22:24;100636.88;;;1.59;100.00
78313;BME280;67568;47.438;21.408;2023-12-07T09:25:00;100643.56;;;1.51;100.00
78313;BME280;67568;47.438;21.408;2023-12-07T09:27:27;100638.06;;;1.40;100.00
78313;BME280;67568;47.438;21.408;2023-12-07T09:29:54;100637.13;;;1.46;100.00
78313;BME280;67568;47.438;21.408;2023-12-07T09:32:20;100636.94;;;1.17;100.00
78313;BME280;67568;47.438;21.408;2023-12-07T09:34:58;100633.91;;;1.37;100.00
78313;BME280;67568;47.438;21.408;2023-12-07T09:37:25;100635.56;;;1.38;100.00
78313;BME280;67568;47.438;21.408;2023-12-07T09:39:53;100634.00;;;1.30;100.00
78313;BME280;67568;47.438;21.408;2023-12-07T09:42:19;100630.09;;;1.26;100.00
78313;BME280;67568;47.438;21.408;2023-12-07T09:44:48;100636.44;;;1.08;100.00
78313;BME280;67568;47.438;21.408;2023-12-07T09:47:15;100638.75;;;1.23;100.00
78313;BME280;67568;47.438;21.408;2023-12-07T09:49:53;100628.69;;;1.35;100.00
78313;BME280;67568;47.438;21.408;2023-12-07T09:52:21;100626.66;;;1.31;100.00
78313;BME280;67568;47.438;21.408;2023-12-07T09:54:51;100631.25;;;1.19;100.00
78313;BME280;67568;47.438;21.408;2023-12-07T09:57:18;100625.22;;;1.28;100.00
78313;BME280;67568;47.438;21.408;2023-12-07T09:59:48;100638.06;;;1.40;100.00
78313;BME280;67568;47.438;21.408;2023-12-07T10:02:17;100627.63;;;1.48;100.00
78313;BME280;67568;47.438;21.408;2023-12-07T10:04:44;100632.22;;;1.36;100.00
78313;BME280;67568;47.438;21.408;2023-12-07T10:07:13;100628.44;;;1.37;100.00
78313;BME280;67568;47.438;21.408;2023-12-07T10:09:43;100632.00;;;1.26;100.00
78313;BME280;67568;47.438;21.408;2023-12-07T10:12:10;100634.88;;;1.43;100.00
78313;BME280;67568;47.438;21.408;2023-12-07T10:14:38;100628.94;;;1.34;100.00
78313;BME280;67568;47.438;21.408;2023-12-07T10:17:04;100629.41;;;1.31;100.00
78313;BME280;67568;47.438;21.408;2023-12-07T10:19:31;100636.38;;;1.39;100.00
78313;BME280;67568;47.438;21.408;2023-12-07T10:21:59;100632.84;;;1.50;100.00
78313;BME280;67568;47.438;21.408;2023-12-07T10:24:25;100631.34;;;1.54;100.00
78313;BME280;67568;47.438;21.408;2023-12-07T10:26:52;100631.34;;;1.54;100.00
78313;BME280;67568;47.438;21.408;2023-12-07T10:29:29;100632.63;;;1.51;100.00
78313;BME280;67568;47.438;21.408;2023-12-07T10:32:01;100636.06;;;1.70;100.00
78313;BME280;67568;47.438;21.408;2023-12-07T10:34:28;100627.31;;;1.68;100.00
78313;BME280;67568;47.438;21.408;2023-12-07T10:36:56;100630.03;;;1.68;100.00
78313;BME280;67568;47.438;21.408;2023-12-07T10:39:24;100628.00;;;1.64;100.00
78313;BME280;67568;47.438;21.408;2023-12-07T10:42:02;100631.56;;;1.64;100.00
78313;BME280;67568;47.438;21.408;2023-12-07T10:44:29;100625.50;;;1.62;100.00
78313;BME280;67568;47.438;21.408;2023-12-07T10:46:58;100628.47;;;1.72;100.00
78313;BME280;67568;47.438;21.408;2023-12-07T10:49:27;100624.44;;;1.63;100.00
78313;BME280;67568;47.438;21.408;2023-12-07T10:52:04;100627.88;;;1.47;100.00
78313;BME280;67568;47.438;21.408;2023-12-07T10:54:54;100630.38;;;1.60;100.00
78313;BME280;67568;47.438;21.408;2023-12-07T10:57:26;100627.66;;;1.72;100.00
78313;BME280;67568;47.438;21.408;2023-12-07T10:59:55;100625.63;;;1.55;100.00
78313;BME280;67568;47.438;21.408;2023-12-07T11:02:24;100626.00;;;1.83;100.00
78313;BME280;67568;47.438;21.408;2023-12-07T11:04:56;100628.97;;;1.81;100.00
78313;BME280;67568;47.438;21.408;2023-12-07T11:07:27;100623.00;;;1.61;100.00
78313;BME280;67568;47.438;21.408;2023-12-07T11:10:12;100626.75;;;1.36;100.00
78313;BME280;67568;47.438;21.408;2023-12-07T11:12:55;100619.69;;;1.58;100.00
78313;BME280;67568;47.438;21.408;2023-12-07T11:15:25;100622.19;;;1.60;100.00
78313;BME280;67568;47.438;21.408;2023-12-07T11:17:55;100631.69;;;1.69;100.00
78313;BME280;67568;47.438;21.408;2023-12-07T11:20:32;100625.88;;;1.77;100.00
78313;BME280;67568;47.438;21.408;2023-12-07T11:23:06;100619.34;;;1.78;100.00
78313;BME280;67568;47.438;21.408;2023-12-07T11:25:33;100624.56;;;1.92;100.00
78313;BME280;67568;47.438;21.408;2023-12-07T11:28:05;100627.19;;;1.63;100.00
78313;BME280;67568;47.438;21.408;2023-12-07T11:30:35;100635.13;;;1.65;100.00
78313;BME280;67568;47.438;21.408;2023-12-07T11:33:06;100629.31;;;1.61;100.00
78313;BME280;67568;47.438;21.408;2023-12-07T11:35:33;100630.38;;;1.60;100.00
78313;BME280;67568;47.438;21.408;2023-12-07T11:40:52;100634.41;;;1.46;100.00
78313;BME280;67568;47.438;21.408;2023-12-07T11:45:59;100625.94;;;1.35;100.00
78313;BME280;67568;47.438;21.408;2023-12-07T11:48:27;100621.44;;;1.53;100.00
78313;BME280;67568;47.438;21.408;2023-12-07T11:51:00;100625.97;;;1.59;100.00
78313;BME280;67568;47.438;21.408;2023-12-07T11:56:02;100624.31;;;1.58;100.00
78313;BME280;67568;47.438;21.408;2023-12-07T11:58:31;100621.44;;;1.53;100.00
78313;BME280;67568;47.438;21.408;2023-12-07T12:01:03;100624.88;;;1.37;100.00
78313;BME280;67568;47.438;21.408;2023-12-07T12:03:31;100628.22;;;1.50;100.00
78313;BME280;67568;47.438;21.408;2023-12-07T12:05:58;100621.28;;;1.24;100.00
78313;BME280;67568;47.438;21.408;2023-12-07T12:08:25;100624.66;;;1.38;100.00
78313;BME280;67568;47.438;21.408;2023-12-07T12:10:54;100623.41;;;1.22;100.00
78313;BME280;67568;47.438;21.408;2023-12-07T12:13:28;100627.25;;;1.33;100.00
78313;BME280;67568;47.438;21.408;2023-12-07T12:15:57;100629.59;;;1.18;100.00
78313;BME280;67568;47.438;21.408;2023-12-07T12:18:29;100629.50;;;1.48;100.00
78313;BME280;67568;47.438;21.408;2023-12-07T12:20:57;100626.09;;;1.52;100.00
78313;BME280;67568;47.438;21.408;2023-12-07T12:23:24;100625.94;;;1.35;100.00
78313;BME280;67568;47.438;21.408;2023-12-07T12:25:53;100631.75;;;1.27;100.00
78313;BME280;67568;47.438;21.408;2023-12-07T12:28:21;100625.13;;;1.47;100.00
78313;BME280;67568;47.438;21.408;2023-12-07T12:30:48;100627.16;;;1.40;100.00
78313;BME280;67568;47.438;21.408;2023-12-07T12:33:16;100626.69;;;1.43;100.00
78313;BME280;67568;47.438;21.408;2023-12-07T12:35:43;100627.97;;;1.40;100.00
78313;BME280;67568;47.438;21.408;2023-12-07T12:38:10;100632.38;;;1.53;100.00
78313;BME280;67568;47.438;21.408;2023-12-07T12:40:46;100631.34;;;1.54;100.00
78313;BME280;67568;47.438;21.408;2023-12-07T12:43:13;100638.09;;;1.63;100.00
78313;BME280;67568;47.438;21.408;2023-12-07T12:45:40;100640.34;;;1.43;100.00
78313;BME280;67568;47.438;21.408;2023-12-07T12:48:07;100635.34;;;1.40;100.00
78313;BME280;67568;47.438;21.408;2023-12-07T12:50:37;100639.03;;;1.57;100.00
78313;BME280;67568;47.438;21.408;2023-12-07T12:53:05;100639.38;;;1.37;100.00
78313;BME280;67568;47.438;21.408;2023-12-07T12:55:40;100644.25;;;1.47;100.00
78313;BME280;67568;47.438;21.408;2023-12-07T12:58:09;100640.84;;;1.63;100.00
78313;BME280;67568;47.438;21.408;2023-12-07T13:00:39;100643.72;;;1.26;100.00
78313;BME280;67568;47.438;21.408;2023-12-07T13:03:06;100649.72;;;1.58;100.00
78313;BME280;67568;47.438;21.408;2023-12-07T13:05:33;100647.25;;;1.57;100.00
78313;BME280;67568;47.438;21.408;2023-12-07T13:08:01;100652.22;;;1.48;100.00
78313;BME280;67568;47.438;21.408;2023-12-07T13:10:40;100643.06;;;1.43;100.00
78313;BME280;67568;47.438;21.408;2023-12-07T13:13:07;100647.94;;;1.52;100.00
78313;BME280;67568;47.438;21.408;2023-12-07T13:15:34;100654.13;;;1.60;100.00
78313;BME280;67568;47.438;21.408;2023-12-07T13:18:04;100656.97;;;1.76;100.00
78313;BME280;67568;47.438;21.408;2023-12-07T13:20:34;100657.22;;;1.87;100.00
78313;BME280;67568;47.438;21.408;2023-12-07T13:23:22;100660.09;;;1.80;100.00
78313;BME280;67568;47.438;21.408;2023-12-07T13:25:48;100659.47;;;1.90;100.00
78313;BME280;67568;47.438;21.408;2023-12-07T13:28:17;100671.22;;;1.78;100.00
78313;BME280;67568;47.438;21.408;2023-12-07T13:30:44;100666.63;;;1.91;100.00
78313;BME280;67568;47.438;21.408;2023-12-07T13:33:20;100664.47;;;1.93;100.00
78313;BME280;67568;47.438;21.408;2023-12-07T13:35:57;100658.19;;;2.04;100.00
78313;BME280;67568;47.438;21.408;2023-12-07T13:38:32;100664.13;;;2.13;100.00
78313;BME280;67568;47.438;21.408;2023-12-07T13:40:59;100664.47;;;1.81;100.00
78313;BME280;67568;47.438;21.408;2023-12-07T13:43:26;100663.91;;;1.91;100.00
78313;BME280;67568;47.438;21.408;2023-12-07T13:45:53;100665.91;;;1.84;100.00
78313;BME280;67568;47.438;21.408;2023-12-07T13:48:24;100668.03;;;1.93;100.00
78313;BME280;67568;47.438;21.408;2023-12-07T13:50:51;100674.81;;;1.91;100.00
78313;BME280;67568;47.438;21.408;2023-12-07T13:53:21;100669.94;;;1.93;100.00
78313;BME280;67568;47.438;21.408;2023-12-07T13:55:49;100675.19;;;1.83;100.00
78313;BME280;67568;47.438;21.408;2023-12-07T13:58:17;100668.50;;;1.78;100.00
78313;BME280;67568;47.438;21.408;2023-12-07T14:00:45;100678.72;;;1.83;100.00
78313;BME280;67568;47.438;21.408;2023-12-07T14:03:12;100681.19;;;1.61;100.00
78313;BME280;67568;47.438;21.408;2023-12-07T14:05:39;100687.03;;;1.76;100.00
78313;BME280;67568;47.438;21.408;2023-12-07T14:08:10;100689.53;;;1.78;100.00
78313;BME280;67568;47.438;21.408;2023-12-07T14:10:40;100688.84;;;1.83;100.00
